LEVD/VLL METAR and TAF weather

Enter ICAO airport designator
Station Type Date Time Source
LEVD METAR 2022/05/23 15:30 UTC NOAA

LEVD 231530Z 27014KT 230V310 CAVOK 21/08 Q1012


Station Type Date Time Source
LEVD Decoded METAR 2022/05/23 15:30 UTC NOAA

Valladolid / Villanubla, Spain (LEVD) 41-43N 004-51W 846M
May 23, 2022 - 11:30 AM EDT / 2022.05.23 1530 UTC
Wind: from the W (270 degrees) at 16 MPH (14 KT) (direction variable):0
Visibility: greater than 7 mile(s):0
Temperature: 69 F (21 C)
Dew Point: 46 F (8 C)
Relative Humidity: 43%
Pressure (altimeter): 29.88 in. Hg (1012 hPa)
ob: LEVD 231530Z 27014KT 230V310 CAVOK 21/08 Q1012
cycle: 15

Station Type Date Time Source
LEVD TAF 2022/05/23 15:28 UTC NOAA

TAF LEVD 231400Z 2315/2415 04008KT 9999 SCT040 TX24/2316Z TN09/2405Z
TEMPO 2315/2320 24010KT

Example: see airport list